Accueil
METAR-TAF:

METAR-TAF

Aéroports :

Kasumigaura, Japon

latitude: 36-02N, longitude: 140-12E, altitude: 26 m

Observation

Le bulletin a été fait il y a 16 heures et 28 minutes, à 05:40 UTC
Vent 9 kt de nord
Température 6°C
Humidité 52%
Pression 1017 hPa
Visibilité 10 km ou plus
Nuages épars à une hauteur de 3000 ft
Nuages fragmentés à une hauteur de 7000 ft

METAR: RJAK 270540Z 01009KT 9999 SCT030 BKN070 06/M03 Q1017 RMK 3CU030 5AC070 A3004

Heure: 07:08 (22:08 UTC)


TAF: absent

Observations et prévisions météorologiques de plus de 4000 aéroports (messages METAR et TAF).

Les stations disponibles sont représentées par des disques jaunes et rouges sur la carte.

Passer la souris dessus pour voir le nom de la station.

Cliquer dessus pour voir les observations et prévisions météorologiques.

Pour changer de carte: cliquez sur les boutons verts avec une croix noire pour zoomer, sur le bouton vert avec un tiret pour effectuer un zoom arrière, ou sur les flèches vertes pour les cartes adjacentes.


METAR-TAF: